sensor_id;sensor_type;location;lat;lon;timestamp;temperature;humidity
20141;DHT22;10231;47.702;9.826;2023-05-10T00:01:07;13.70;99.90
20141;DHT22;10231;47.702;9.826;2023-05-10T00:03:33;13.60;99.90
20141;DHT22;10231;47.702;9.826;2023-05-10T00:05:58;13.60;99.90
20141;DHT22;10231;47.702;9.826;2023-05-10T00:08:24;13.50;99.90
20141;DHT22;10231;47.702;9.826;2023-05-10T00:10:49;13.40;99.90
20141;DHT22;10231;47.702;9.826;2023-05-10T00:13:15;13.40;99.90
20141;DHT22;10231;47.702;9.826;2023-05-10T00:15:41;13.40;99.90
20141;DHT22;10231;47.702;9.826;2023-05-10T00:18:06;13.40;99.90
20141;DHT22;10231;47.702;9.826;2023-05-10T00:20:32;13.40;99.90
20141;DHT22;10231;47.702;9.826;2023-05-10T00:22:58;13.30;99.90
20141;DHT22;10231;47.702;9.826;2023-05-10T00:25:23;13.30;99.90
20141;DHT22;10231;47.702;9.826;2023-05-10T00:27:49;13.20;99.90
20141;DHT22;10231;47.702;9.826;2023-05-10T00:30:15;13.10;99.90
20141;DHT22;10231;47.702;9.826;2023-05-10T00:32:40;13.10;99.90
20141;DHT22;10231;47.702;9.826;2023-05-10T00:35:06;13.00;99.90
20141;DHT22;10231;47.702;9.826;2023-05-10T00:37:32;13.00;99.90
20141;DHT22;10231;47.702;9.826;2023-05-10T00:39:57;12.90;99.90
20141;DHT22;10231;47.702;9.826;2023-05-10T00:42:23;13.00;99.90
20141;DHT22;10231;47.702;9.826;2023-05-10T00:44:48;12.90;99.90
20141;DHT22;10231;47.702;9.826;2023-05-10T00:47:15;12.90;99.90
20141;DHT22;10231;47.702;9.826;2023-05-10T00:49:41;12.80;99.90
20141;DHT22;10231;47.702;9.826;2023-05-10T00:52:08;12.80;99.90
20141;DHT22;10231;47.702;9.826;2023-05-10T00:54:34;12.80;99.90
20141;DHT22;10231;47.702;9.826;2023-05-10T00:56:59;12.80;99.90
20141;DHT22;10231;47.702;9.826;2023-05-10T00:59:25;12.90;99.90
20141;DHT22;10231;47.702;9.826;2023-05-10T01:01:51;12.80;99.90
20141;DHT22;10231;47.702;9.826;2023-05-10T01:04:18;12.70;99.90
20141;DHT22;10231;47.702;9.826;2023-05-10T01:06:45;12.80;99.90
20141;DHT22;10231;47.702;9.826;2023-05-10T01:09:11;12.70;99.90
20141;DHT22;10231;47.702;9.826;2023-05-10T01:11:38;12.70;99.90
20141;DHT22;10231;47.702;9.826;2023-05-10T01:14:05;12.60;99.90
20141;DHT22;10231;47.702;9.826;2023-05-10T01:16:33;12.50;99.90
20141;DHT22;10231;47.702;9.826;2023-05-10T01:19:01;12.40;99.90
20141;DHT22;10231;47.702;9.826;2023-05-10T01:21:46;12.50;99.90
20141;DHT22;10231;47.702;9.826;2023-05-10T01:30:02;12.50;99.90
20141;DHT22;10231;47.702;9.826;2023-05-10T01:38:22;12.60;99.90
20141;DHT22;10231;47.702;9.826;2023-05-10T01:41:02;12.50;99.90
20141;DHT22;10231;47.702;9.826;2023-05-10T01:43:35;12.60;99.90
20141;DHT22;10231;47.702;9.826;2023-05-10T01:46:09;12.60;99.90
20141;DHT22;10231;47.702;9.826;2023-05-10T01:48:42;12.60;99.90
20141;DHT22;10231;47.702;9.826;2023-05-10T01:51:14;12.50;99.90
20141;DHT22;10231;47.702;9.826;2023-05-10T01:53:42;12.40;99.90
20141;DHT22;10231;47.702;9.826;2023-05-10T01:56:10;12.30;99.90
20141;DHT22;10231;47.702;9.826;2023-05-10T01:58:39;12.20;99.90
20141;DHT22;10231;47.702;9.826;2023-05-10T02:01:10;12.20;99.90
20141;DHT22;10231;47.702;9.826;2023-05-10T02:03:37;12.20;99.90
20141;DHT22;10231;47.702;9.826;2023-05-10T02:06:05;12.20;99.90
20141;DHT22;10231;47.702;9.826;2023-05-10T02:08:30;12.20;99.90
20141;DHT22;10231;47.702;9.826;2023-05-10T02:10:58;12.10;99.90
20141;DHT22;10231;47.702;9.826;2023-05-10T02:13:25;12.10;99.90
20141;DHT22;10231;47.702;9.826;2023-05-10T02:15:53;12.20;99.90
20141;DHT22;10231;47.702;9.826;2023-05-10T02:18:19;12.10;99.90
20141;DHT22;10231;47.702;9.826;2023-05-10T02:20:46;12.10;99.90
20141;DHT22;10231;47.702;9.826;2023-05-10T02:23:13;12.00;99.90
20141;DHT22;10231;47.702;9.826;2023-05-10T02:25:39;12.00;99.90
20141;DHT22;10231;47.702;9.826;2023-05-10T02:28:06;12.00;99.90
20141;DHT22;10231;47.702;9.826;2023-05-10T02:30:33;12.00;99.90
20141;DHT22;10231;47.702;9.826;2023-05-10T02:33:01;12.00;99.90
20141;DHT22;10231;47.702;9.826;2023-05-10T02:35:27;12.00;99.90
20141;DHT22;10231;47.702;9.826;2023-05-10T02:37:54;11.90;99.90
20141;DHT22;10231;47.702;9.826;2023-05-10T02:40:21;11.90;99.90
20141;DHT22;10231;47.702;9.826;2023-05-10T02:42:50;11.90;99.90
20141;DHT22;10231;47.702;9.826;2023-05-10T02:45:20;12.00;99.90
20141;DHT22;10231;47.702;9.826;2023-05-10T02:47:47;11.90;99.90
20141;DHT22;10231;47.702;9.826;2023-05-10T02:50:13;12.00;99.90
20141;DHT22;10231;47.702;9.826;2023-05-10T02:52:42;12.00;99.90
20141;DHT22;10231;47.702;9.826;2023-05-10T02:55:11;12.00;99.90
20141;DHT22;10231;47.702;9.826;2023-05-10T02:57:41;12.10;99.90
20141;DHT22;10231;47.702;9.826;2023-05-10T03:00:08;12.10;99.90
20141;DHT22;10231;47.702;9.826;2023-05-10T03:02:34;12.10;99.90
20141;DHT22;10231;47.702;9.826;2023-05-10T03:05:00;12.00;99.90
20141;DHT22;10231;47.702;9.826;2023-05-10T03:07:26;12.00;99.90
20141;DHT22;10231;47.702;9.826;2023-05-10T03:09:52;12.00;99.90
20141;DHT22;10231;47.702;9.826;2023-05-10T03:18:22;12.00;99.90
20141;DHT22;10231;47.702;9.826;2023-05-10T03:20:52;12.10;99.90
20141;DHT22;10231;47.702;9.826;2023-05-10T03:23:21;12.20;99.90
20141;DHT22;10231;47.702;9.826;2023-05-10T03:25:48;12.10;99.90
20141;DHT22;10231;47.702;9.826;2023-05-10T03:28:16;12.10;99.90
20141;DHT22;10231;47.702;9.826;2023-05-10T03:30:43;12.10;99.90
20141;DHT22;10231;47.702;9.826;2023-05-10T03:33:09;12.10;99.90
20141;DHT22;10231;47.702;9.826;2023-05-10T03:35:36;12.10;99.90
20141;DHT22;10231;47.702;9.826;2023-05-10T03:38:01;12.10;99.90
20141;DHT22;10231;47.702;9.826;2023-05-10T03:40:27;12.00;99.90
20141;DHT22;10231;47.702;9.826;2023-05-10T03:43:00;12.00;99.90
20141;DHT22;10231;47.702;9.826;2023-05-10T03:45:26;12.00;99.90
20141;DHT22;10231;47.702;9.826;2023-05-10T03:47:52;11.90;99.90
20141;DHT22;10231;47.702;9.826;2023-05-10T03:50:17;11.90;99.90
20141;DHT22;10231;47.702;9.826;2023-05-10T03:52:43;12.00;99.90
20141;DHT22;10231;47.702;9.826;2023-05-10T03:55:27;11.90;99.90
20141;DHT22;10231;47.702;9.826;2023-05-10T03:58:02;11.90;99.90
20141;DHT22;10231;47.702;9.826;2023-05-10T04:00:27;11.90;99.90
20141;DHT22;10231;47.702;9.826;2023-05-10T04:02:53;12.00;99.90
20141;DHT22;10231;47.702;9.826;2023-05-10T04:05:18;11.90;99.90
20141;DHT22;10231;47.702;9.826;2023-05-10T04:07:44;11.80;99.90
20141;DHT22;10231;47.702;9.826;2023-05-10T04:10:10;11.80;99.90
20141;DHT22;10231;47.702;9.826;2023-05-10T04:12:36;11.80;99.90
20141;DHT22;10231;47.702;9.826;2023-05-10T04:15:01;11.80;99.90
20141;DHT22;10231;47.702;9.826;2023-05-10T04:17:27;11.80;99.90
20141;DHT22;10231;47.702;9.826;2023-05-10T04:19:53;11.80;99.90
20141;DHT22;10231;47.702;9.826;2023-05-10T04:22:20;11.80;99.90
20141;DHT22;10231;47.702;9.826;2023-05-10T04:24:46;11.80;99.90
20141;DHT22;10231;47.702;9.826;2023-05-10T04:27:11;11.80;99.90
20141;DHT22;10231;47.702;9.826;2023-05-10T04:29:37;11.90;99.90
20141;DHT22;10231;47.702;9.826;2023-05-10T04:32:03;11.80;99.90
20141;DHT22;10231;47.702;9.826;2023-05-10T04:34:29;11.80;99.90
20141;DHT22;10231;47.702;9.826;2023-05-10T04:36:55;11.80;99.90
20141;DHT22;10231;47.702;9.826;2023-05-10T04:39:20;11.70;99.90
20141;DHT22;10231;47.702;9.826;2023-05-10T04:41:46;11.70;99.90
20141;DHT22;10231;47.702;9.826;2023-05-10T04:44:11;11.70;99.90
20141;DHT22;10231;47.702;9.826;2023-05-10T04:46:37;11.80;99.90
20141;DHT22;10231;47.702;9.826;2023-05-10T04:49:02;11.80;99.90
20141;DHT22;10231;47.702;9.826;2023-05-10T04:51:28;11.80;99.90
20141;DHT22;10231;47.702;9.826;2023-05-10T04:53:53;11.80;99.90
20141;DHT22;10231;47.702;9.826;2023-05-10T04:56:19;11.80;99.90
20141;DHT22;10231;47.702;9.826;2023-05-10T04:58:44;11.80;99.90
20141;DHT22;10231;47.702;9.826;2023-05-10T05:01:11;11.80;99.90
20141;DHT22;10231;47.702;9.826;2023-05-10T05:03:37;11.80;99.90
20141;DHT22;10231;47.702;9.826;2023-05-10T05:06:02;11.80;99.90
20141;DHT22;10231;47.702;9.826;2023-05-10T05:08:28;11.80;99.90
20141;DHT22;10231;47.702;9.826;2023-05-10T05:10:54;11.80;99.90
20141;DHT22;10231;47.702;9.826;2023-05-10T05:13:20;11.80;99.90
20141;DHT22;10231;47.702;9.826;2023-05-10T05:15:45;11.90;99.90
20141;DHT22;10231;47.702;9.826;2023-05-10T05:18:11;12.00;99.90
20141;DHT22;10231;47.702;9.826;2023-05-10T05:20:36;12.10;99.90
20141;DHT22;10231;47.702;9.826;2023-05-10T05:23:02;12.00;99.90
20141;DHT22;10231;47.702;9.826;2023-05-10T05:25:27;12.10;99.90
20141;DHT22;10231;47.702;9.826;2023-05-10T05:27:53;12.10;99.90
20141;DHT22;10231;47.702;9.826;2023-05-10T05:30:19;12.10;99.90
20141;DHT22;10231;47.702;9.826;2023-05-10T05:32:44;12.10;99.90
20141;DHT22;10231;47.702;9.826;2023-05-10T05:35:10;12.20;99.90
20141;DHT22;10231;47.702;9.826;2023-05-10T05:37:36;12.20;99.90
20141;DHT22;10231;47.702;9.826;2023-05-10T05:40:02;12.20;99.90
20141;DHT22;10231;47.702;9.826;2023-05-10T05:42:28;12.20;99.90
20141;DHT22;10231;47.702;9.826;2023-05-10T05:44:54;12.30;99.90
20141;DHT22;10231;47.702;9.826;2023-05-10T05:47:19;12.30;99.90
20141;DHT22;10231;47.702;9.826;2023-05-10T05:49:45;12.30;99.90
20141;DHT22;10231;47.702;9.826;2023-05-10T05:52:11;12.40;99.90
20141;DHT22;10231;47.702;9.826;2023-05-10T05:54:36;12.50;99.90
20141;DHT22;10231;47.702;9.826;2023-05-10T05:57:02;12.60;99.90
20141;DHT22;10231;47.702;9.826;2023-05-10T05:59:28;12.50;99.90
20141;DHT22;10231;47.702;9.826;2023-05-10T06:01:53;12.50;99.90
20141;DHT22;10231;47.702;9.826;2023-05-10T06:04:19;12.50;99.90
20141;DHT22;10231;47.702;9.826;2023-05-10T06:06:44;12.50;99.90
20141;DHT22;10231;47.702;9.826;2023-05-10T06:09:11;12.50;99.90
20141;DHT22;10231;47.702;9.826;2023-05-10T06:11:37;12.40;99.90
20141;DHT22;10231;47.702;9.826;2023-05-10T06:14:04;12.40;99.90
20141;DHT22;10231;47.702;9.826;2023-05-10T06:16:30;12.40;99.90
20141;DHT22;10231;47.702;9.826;2023-05-10T06:18:56;12.40;99.90
20141;DHT22;10231;47.702;9.826;2023-05-10T06:21:22;12.30;99.90
20141;DHT22;10231;47.702;9.826;2023-05-10T06:23:47;12.30;99.90
20141;DHT22;10231;47.702;9.826;2023-05-10T06:26:13;12.40;99.90
20141;DHT22;10231;47.702;9.826;2023-05-10T06:28:39;12.30;99.90
20141;DHT22;10231;47.702;9.826;2023-05-10T06:31:05;12.30;99.90
20141;DHT22;10231;47.702;9.826;2023-05-10T06:33:31;12.30;99.90
20141;DHT22;10231;47.702;9.826;2023-05-10T06:35:57;12.30;99.90
20141;DHT22;10231;47.702;9.826;2023-05-10T06:38:23;12.30;99.90
20141;DHT22;10231;47.702;9.826;2023-05-10T06:40:48;12.40;99.90
20141;DHT22;10231;47.702;9.826;2023-05-10T06:43:14;12.40;99.90
20141;DHT22;10231;47.702;9.826;2023-05-10T06:45:40;12.40;99.90
20141;DHT22;10231;47.702;9.826;2023-05-10T06:48:06;12.40;99.90
20141;DHT22;10231;47.702;9.826;2023-05-10T06:50:32;12.40;99.90
20141;DHT22;10231;47.702;9.826;2023-05-10T06:52:58;12.40;99.90
20141;DHT22;10231;47.702;9.826;2023-05-10T06:55:24;12.40;99.90
20141;DHT22;10231;47.702;9.826;2023-05-10T06:57:50;12.40;99.90
20141;DHT22;10231;47.702;9.826;2023-05-10T07:00:17;12.40;99.90
20141;DHT22;10231;47.702;9.826;2023-05-10T07:02:43;12.40;99.90
20141;DHT22;10231;47.702;9.826;2023-05-10T07:05:09;12.40;99.90
20141;DHT22;10231;47.702;9.826;2023-05-10T07:07:34;12.30;99.90
20141;DHT22;10231;47.702;9.826;2023-05-10T07:10:00;12.40;99.90
20141;DHT22;10231;47.702;9.826;2023-05-10T07:12:26;12.30;99.90
20141;DHT22;10231;47.702;9.826;2023-05-10T07:14:51;12.20;99.90
20141;DHT22;10231;47.702;9.826;2023-05-10T07:17:17;12.20;99.90
20141;DHT22;10231;47.702;9.826;2023-05-10T07:19:43;12.40;99.90
20141;DHT22;10231;47.702;9.826;2023-05-10T07:22:08;12.30;99.90
20141;DHT22;10231;47.702;9.826;2023-05-10T07:24:34;12.40;99.90
20141;DHT22;10231;47.702;9.826;2023-05-10T07:27:00;12.30;99.90
20141;DHT22;10231;47.702;9.826;2023-05-10T07:29:26;12.30;99.90
20141;DHT22;10231;47.702;9.826;2023-05-10T07:31:51;12.30;99.90
20141;DHT22;10231;47.702;9.826;2023-05-10T07:34:17;12.20;99.90
20141;DHT22;10231;47.702;9.826;2023-05-10T07:36:43;12.20;99.90
20141;DHT22;10231;47.702;9.826;2023-05-10T07:39:08;12.20;99.90
20141;DHT22;10231;47.702;9.826;2023-05-10T07:41:34;12.20;99.90
20141;DHT22;10231;47.702;9.826;2023-05-10T07:43:59;12.10;99.90
20141;DHT22;10231;47.702;9.826;2023-05-10T07:46:25;12.20;99.90
20141;DHT22;10231;47.702;9.826;2023-05-10T07:48:50;12.20;99.90
20141;DHT22;10231;47.702;9.826;2023-05-10T07:51:16;12.10;99.90
20141;DHT22;10231;47.702;9.826;2023-05-10T07:53:42;12.30;99.90
20141;DHT22;10231;47.702;9.826;2023-05-10T07:56:27;12.20;99.90
20141;DHT22;10231;47.702;9.826;2023-05-10T07:58:59;12.20;99.90
20141;DHT22;10231;47.702;9.826;2023-05-10T08:01:25;12.20;99.90
20141;DHT22;10231;47.702;9.826;2023-05-10T08:03:51;12.20;99.90
20141;DHT22;10231;47.702;9.826;2023-05-10T08:06:19;12.30;99.90
20141;DHT22;10231;47.702;9.826;2023-05-10T08:08:48;12.30;99.90
20141;DHT22;10231;47.702;9.826;2023-05-10T08:11:18;12.40;99.90
20141;DHT22;10231;47.702;9.826;2023-05-10T08:13:45;12.40;99.90
20141;DHT22;10231;47.702;9.826;2023-05-10T08:16:11;12.40;99.90
20141;DHT22;10231;47.702;9.826;2023-05-10T08:18:37;12.30;99.90
20141;DHT22;10231;47.702;9.826;2023-05-10T08:21:03;12.40;99.90
20141;DHT22;10231;47.702;9.826;2023-05-10T08:23:28;12.40;99.90
20141;DHT22;10231;47.702;9.826;2023-05-10T08:25:54;12.40;99.90
20141;DHT22;10231;47.702;9.826;2023-05-10T08:28:19;12.40;99.90
20141;DHT22;10231;47.702;9.826;2023-05-10T08:30:45;12.40;99.90
20141;DHT22;10231;47.702;9.826;2023-05-10T08:33:10;12.40;99.90
20141;DHT22;10231;47.702;9.826;2023-05-10T08:35:36;12.40;99.90
20141;DHT22;10231;47.702;9.826;2023-05-10T08:38:01;12.40;99.90
20141;DHT22;10231;47.702;9.826;2023-05-10T08:40:27;12.50;99.90
20141;DHT22;10231;47.702;9.826;2023-05-10T08:43:06;12.50;99.90
20141;DHT22;10231;47.702;9.826;2023-05-10T08:45:37;12.40;99.90
20141;DHT22;10231;47.702;9.826;2023-05-10T08:48:05;12.50;99.90
20141;DHT22;10231;47.702;9.826;2023-05-10T08:50:31;12.50;99.90
20141;DHT22;10231;47.702;9.826;2023-05-10T08:52:59;12.50;99.90
20141;DHT22;10231;47.702;9.826;2023-05-10T08:55:25;12.50;99.90
20141;DHT22;10231;47.702;9.826;2023-05-10T08:57:51;12.60;99.90
20141;DHT22;10231;47.702;9.826;2023-05-10T09:00:18;12.60;99.90
20141;DHT22;10231;47.702;9.826;2023-05-10T09:02:44;12.60;99.90
20141;DHT22;10231;47.702;9.826;2023-05-10T09:05:11;12.60;99.90
20141;DHT22;10231;47.702;9.826;2023-05-10T09:07:37;12.60;99.90
20141;DHT22;10231;47.702;9.826;2023-05-10T09:10:04;12.60;99.90
20141;DHT22;10231;47.702;9.826;2023-05-10T09:12:30;12.50;99.90
20141;DHT22;10231;47.702;9.826;2023-05-10T09:14:56;12.60;99.90
20141;DHT22;10231;47.702;9.826;2023-05-10T09:17:24;12.60;99.90
20141;DHT22;10231;47.702;9.826;2023-05-10T09:19:57;12.50;99.90
20141;DHT22;10231;47.702;9.826;2023-05-10T09:22:23;12.60;99.90
20141;DHT22;10231;47.702;9.826;2023-05-10T09:25:10;12.70;99.90
20141;DHT22;10231;47.702;9.826;2023-05-10T09:27:37;12.70;99.90
20141;DHT22;10231;47.702;9.826;2023-05-10T09:30:04;12.60;99.90
20141;DHT22;10231;47.702;9.826;2023-05-10T09:32:39;12.60;99.90
20141;DHT22;10231;47.702;9.826;2023-05-10T09:35:11;12.80;99.90
20141;DHT22;10231;47.702;9.826;2023-05-10T09:37:39;12.80;99.90
20141;DHT22;10231;47.702;9.826;2023-05-10T09:40:08;12.90;99.90
20141;DHT22;10231;47.702;9.826;2023-05-10T09:42:36;12.90;99.90
20141;DHT22;10231;47.702;9.826;2023-05-10T09:45:03;12.90;99.90
20141;DHT22;10231;47.702;9.826;2023-05-10T09:47:32;13.00;99.90
20141;DHT22;10231;47.702;9.826;2023-05-10T09:49:58;13.00;99.90
20141;DHT22;10231;47.702;9.826;2023-05-10T09:52:28;13.00;99.90
20141;DHT22;10231;47.702;9.826;2023-05-10T09:54:54;13.00;99.90
20141;DHT22;10231;47.702;9.826;2023-05-10T09:57:21;12.70;99.90
20141;DHT22;10231;47.702;9.826;2023-05-10T09:59:47;13.00;99.90
20141;DHT22;10231;47.702;9.826;2023-05-10T10:02:13;13.00;99.90
20141;DHT22;10231;47.702;9.826;2023-05-10T10:04:39;13.00;99.90
20141;DHT22;10231;47.702;9.826;2023-05-10T10:07:06;13.00;99.90
20141;DHT22;10231;47.702;9.826;2023-05-10T10:09:32;12.90;99.90
20141;DHT22;10231;47.702;9.826;2023-05-10T10:12:00;13.00;99.90
20141;DHT22;10231;47.702;9.826;2023-05-10T10:14:25;13.10;99.90
20141;DHT22;10231;47.702;9.826;2023-05-10T10:16:51;13.10;99.90
20141;DHT22;10231;47.702;9.826;2023-05-10T10:19:19;13.20;99.90
20141;DHT22;10231;47.702;9.826;2023-05-10T10:21:45;13.20;99.90
20141;DHT22;10231;47.702;9.826;2023-05-10T10:24:11;13.30;99.90
20141;DHT22;10231;47.702;9.826;2023-05-10T10:26:37;13.20;99.90
20141;DHT22;10231;47.702;9.826;2023-05-10T10:29:26;13.10;99.90
20141;DHT22;10231;47.702;9.826;2023-05-10T10:32:30;13.00;99.90
20141;DHT22;10231;47.702;9.826;2023-05-10T10:34:57;13.10;99.90
20141;DHT22;10231;47.702;9.826;2023-05-10T10:37:23;13.00;99.90
20141;DHT22;10231;47.702;9.826;2023-05-10T10:39:49;13.10;99.90
20141;DHT22;10231;47.702;9.826;2023-05-10T10:42:44;13.10;99.90
20141;DHT22;10231;47.702;9.826;2023-05-10T10:45:15;13.20;99.90
20141;DHT22;10231;47.702;9.826;2023-05-10T10:47:40;13.10;99.90
20141;DHT22;10231;47.702;9.826;2023-05-10T10:50:08;13.00;99.90
20141;DHT22;10231;47.702;9.826;2023-05-10T10:52:38;13.00;99.90
20141;DHT22;10231;47.702;9.826;2023-05-10T10:55:15;12.90;99.90
20141;DHT22;10231;47.702;9.826;2023-05-10T10:57:50;12.90;99.90
20141;DHT22;10231;47.702;9.826;2023-05-10T11:05:40;12.70;99.90
20141;DHT22;10231;47.702;9.826;2023-05-10T11:10:40;12.90;99.90
20141;DHT22;10231;47.702;9.826;2023-05-10T11:13:09;12.90;99.90
20141;DHT22;10231;47.702;9.826;2023-05-10T11:15:38;13.00;99.90
20141;DHT22;10231;47.702;9.826;2023-05-10T11:18:19;12.90;99.90
20141;DHT22;10231;47.702;9.826;2023-05-10T11:21:00;13.00;99.90
20141;DHT22;10231;47.702;9.826;2023-05-10T11:26:07;13.10;99.90
20141;DHT22;10231;47.702;9.826;2023-05-10T11:28:42;13.00;99.90
20141;DHT22;10231;47.702;9.826;2023-05-10T11:31:08;13.10;99.90
20141;DHT22;10231;47.702;9.826;2023-05-10T11:33:46;13.10;99.90
20141;DHT22;10231;47.702;9.826;2023-05-10T11:36:20;13.10;99.90
20141;DHT22;10231;47.702;9.826;2023-05-10T11:38:47;13.10;99.90
20141;DHT22;10231;47.702;9.826;2023-05-10T11:41:13;13.10;99.90
20141;DHT22;10231;47.702;9.826;2023-05-10T11:43:39;13.10;99.90
20141;DHT22;10231;47.702;9.826;2023-05-10T11:46:10;13.20;99.90
20141;DHT22;10231;47.702;9.826;2023-05-10T11:48:40;13.10;99.90
20141;DHT22;10231;47.702;9.826;2023-05-10T11:51:10;13.20;99.90
20141;DHT22;10231;47.702;9.826;2023-05-10T11:53:36;13.30;99.90
20141;DHT22;10231;47.702;9.826;2023-05-10T11:56:05;13.20;99.90
20141;DHT22;10231;47.702;9.826;2023-05-10T11:58:31;13.10;99.90
20141;DHT22;10231;47.702;9.826;2023-05-10T12:00:58;13.00;99.90
20141;DHT22;10231;47.702;9.826;2023-05-10T12:03:24;13.00;99.90
20141;DHT22;10231;47.702;9.826;2023-05-10T12:05:50;13.00;99.90
20141;DHT22;10231;47.702;9.826;2023-05-10T12:08:20;13.00;99.90
20141;DHT22;10231;47.702;9.826;2023-05-10T12:10:46;13.00;99.90
20141;DHT22;10231;47.702;9.826;2023-05-10T12:13:13;13.10;99.90
20141;DHT22;10231;47.702;9.826;2023-05-10T12:15:40;13.20;99.90
20141;DHT22;10231;47.702;9.826;2023-05-10T12:18:05;13.20;99.90
20141;DHT22;10231;47.702;9.826;2023-05-10T12:20:33;13.20;99.90
20141;DHT22;10231;47.702;9.826;2023-05-10T12:22:59;13.20;99.90
20141;DHT22;10231;47.702;9.826;2023-05-10T12:25:34;13.20;99.90
20141;DHT22;10231;47.702;9.826;2023-05-10T12:28:02;13.10;99.90
20141;DHT22;10231;47.702;9.826;2023-05-10T12:30:30;13.00;99.90
20141;DHT22;10231;47.702;9.826;2023-05-10T12:33:10;13.00;99.90
20141;DHT22;10231;47.702;9.826;2023-05-10T12:35:47;13.00;99.90
20141;DHT22;10231;47.702;9.826;2023-05-10T12:38:32;13.00;99.90
20141;DHT22;10231;47.702;9.826;2023-05-10T12:41:03;13.20;99.90
20141;DHT22;10231;47.702;9.826;2023-05-10T12:43:29;13.20;99.90
20141;DHT22;10231;47.702;9.826;2023-05-10T12:45:55;13.10;99.90
20141;DHT22;10231;47.702;9.826;2023-05-10T12:48:20;13.10;99.90
20141;DHT22;10231;47.702;9.826;2023-05-10T12:50:46;13.10;99.90
20141;DHT22;10231;47.702;9.826;2023-05-10T12:53:14;13.10;99.90
20141;DHT22;10231;47.702;9.826;2023-05-10T12:55:41;13.20;99.90
20141;DHT22;10231;47.702;9.826;2023-05-10T12:58:07;13.10;99.90
20141;DHT22;10231;47.702;9.826;2023-05-10T13:00:32;13.20;99.90
20141;DHT22;10231;47.702;9.826;2023-05-10T13:02:58;13.20;99.90
20141;DHT22;10231;47.702;9.826;2023-05-10T13:05:23;13.30;99.90
20141;DHT22;10231;47.702;9.826;2023-05-10T13:07:49;13.30;99.90
20141;DHT22;10231;47.702;9.826;2023-05-10T13:10:15;13.30;99.90
20141;DHT22;10231;47.702;9.826;2023-05-10T13:12:41;13.30;99.90
20141;DHT22;10231;47.702;9.826;2023-05-10T13:15:07;13.30;99.90
20141;DHT22;10231;47.702;9.826;2023-05-10T13:17:32;13.30;99.90
20141;DHT22;10231;47.702;9.826;2023-05-10T13:19:58;13.40;99.90
20141;DHT22;10231;47.702;9.826;2023-05-10T13:22:23;13.50;99.90
20141;DHT22;10231;47.702;9.826;2023-05-10T13:24:49;13.50;99.90
20141;DHT22;10231;47.702;9.826;2023-05-10T13:27:15;13.50;99.90
20141;DHT22;10231;47.702;9.826;2023-05-10T13:29:40;13.50;99.90
20141;DHT22;10231;47.702;9.826;2023-05-10T13:32:06;13.70;99.90
20141;DHT22;10231;47.702;9.826;2023-05-10T13:34:31;13.70;99.90
20141;DHT22;10231;47.702;9.826;2023-05-10T13:36:57;13.70;99.90
20141;DHT22;10231;47.702;9.826;2023-05-10T13:39:23;13.70;99.90
20141;DHT22;10231;47.702;9.826;2023-05-10T13:41:48;13.70;99.90
20141;DHT22;10231;47.702;9.826;2023-05-10T13:44:14;13.70;99.90
20141;DHT22;10231;47.702;9.826;2023-05-10T13:46:41;13.70;99.90
20141;DHT22;10231;47.702;9.826;2023-05-10T13:49:08;13.60;99.90
20141;DHT22;10231;47.702;9.826;2023-05-10T13:51:34;13.60;99.90
20141;DHT22;10231;47.702;9.826;2023-05-10T13:54:00;13.60;99.90
20141;DHT22;10231;47.702;9.826;2023-05-10T13:56:25;13.60;99.90
20141;DHT22;10231;47.702;9.826;2023-05-10T13:58:51;13.60;99.90
20141;DHT22;10231;47.702;9.826;2023-05-10T14:01:17;13.60;99.90
20141;DHT22;10231;47.702;9.826;2023-05-10T14:03:43;13.50;99.90
20141;DHT22;10231;47.702;9.826;2023-05-10T14:06:08;13.40;99.90
20141;DHT22;10231;47.702;9.826;2023-05-10T14:08:35;13.40;99.90
20141;DHT22;10231;47.702;9.826;2023-05-10T14:11:01;13.40;99.90
20141;DHT22;10231;47.702;9.826;2023-05-10T14:13:26;13.50;99.90
20141;DHT22;10231;47.702;9.826;2023-05-10T14:15:54;13.60;99.90
20141;DHT22;10231;47.702;9.826;2023-05-10T14:18:20;13.60;99.90
20141;DHT22;10231;47.702;9.826;2023-05-10T14:20:45;13.50;99.90
20141;DHT22;10231;47.702;9.826;2023-05-10T14:23:11;13.60;99.90
20141;DHT22;10231;47.702;9.826;2023-05-10T14:25:40;13.50;99.90
20141;DHT22;10231;47.702;9.826;2023-05-10T14:28:05;13.40;99.90
20141;DHT22;10231;47.702;9.826;2023-05-10T14:30:31;13.50;99.90
20141;DHT22;10231;47.702;9.826;2023-05-10T14:32:57;13.50;99.90
20141;DHT22;10231;47.702;9.826;2023-05-10T14:35:23;13.50;99.90
20141;DHT22;10231;47.702;9.826;2023-05-10T14:37:49;13.40;99.90
20141;DHT22;10231;47.702;9.826;2023-05-10T14:40:14;13.40;99.90
20141;DHT22;10231;47.702;9.826;2023-05-10T14:42:41;13.30;99.90
20141;DHT22;10231;47.702;9.826;2023-05-10T14:45:07;13.30;99.90
20141;DHT22;10231;47.702;9.826;2023-05-10T14:47:34;13.20;99.90
20141;DHT22;10231;47.702;9.826;2023-05-10T14:49:59;13.20;99.90
20141;DHT22;10231;47.702;9.826;2023-05-10T14:52:25;13.20;99.90
20141;DHT22;10231;47.702;9.826;2023-05-10T14:54:51;13.20;99.90
20141;DHT22;10231;47.702;9.826;2023-05-10T14:57:16;13.20;99.90
20141;DHT22;10231;47.702;9.826;2023-05-10T14:59:42;13.30;99.90
20141;DHT22;10231;47.702;9.826;2023-05-10T15:02:07;13.20;99.90
20141;DHT22;10231;47.702;9.826;2023-05-10T15:04:33;13.20;99.90
20141;DHT22;10231;47.702;9.826;2023-05-10T15:06:59;13.20;99.90
20141;DHT22;10231;47.702;9.826;2023-05-10T15:09:25;13.20;99.90
20141;DHT22;10231;47.702;9.826;2023-05-10T15:11:51;13.10;99.90
20141;DHT22;10231;47.702;9.826;2023-05-10T15:14:16;13.10;99.90
20141;DHT22;10231;47.702;9.826;2023-05-10T15:16:42;13.00;99.90
20141;DHT22;10231;47.702;9.826;2023-05-10T15:19:07;13.00;99.90
20141;DHT22;10231;47.702;9.826;2023-05-10T15:21:33;12.90;99.90
20141;DHT22;10231;47.702;9.826;2023-05-10T15:24:04;13.00;99.90
20141;DHT22;10231;47.702;9.826;2023-05-10T15:26:30;12.90;99.90
20141;DHT22;10231;47.702;9.826;2023-05-10T15:28:56;12.90;99.90
20141;DHT22;10231;47.702;9.826;2023-05-10T15:31:21;12.80;99.90
20141;DHT22;10231;47.702;9.826;2023-05-10T15:33:47;12.90;99.90
20141;DHT22;10231;47.702;9.826;2023-05-10T15:36:13;12.90;99.90
20141;DHT22;10231;47.702;9.826;2023-05-10T15:38:38;12.90;99.90
20141;DHT22;10231;47.702;9.826;2023-05-10T15:41:04;12.90;99.90
20141;DHT22;10231;47.702;9.826;2023-05-10T15:43:29;12.90;99.90
20141;DHT22;10231;47.702;9.826;2023-05-10T15:45:55;12.90;99.90
20141;DHT22;10231;47.702;9.826;2023-05-10T15:48:20;13.00;99.90
20141;DHT22;10231;47.702;9.826;2023-05-10T15:50:46;13.00;99.90
20141;DHT22;10231;47.702;9.826;2023-05-10T15:53:11;13.00;99.90
20141;DHT22;10231;47.702;9.826;2023-05-10T15:55:37;13.00;99.90
20141;DHT22;10231;47.702;9.826;2023-05-10T15:58:02;13.00;99.90